createdAt,value
2022-10-28T00:00:31.347Z,0
2022-10-28T00:01:47.616Z,0
2022-10-28T00:03:03.910Z,0
2022-10-28T00:04:20.230Z,0
2022-10-28T00:05:36.523Z,0
2022-10-28T00:08:09.104Z,0
2022-10-28T00:09:25.390Z,0
2022-10-28T00:10:41.707Z,0
2022-10-28T00:11:57.994Z,0
2022-10-28T00:13:13.315Z,0
2022-10-28T00:14:29.586Z,0
2022-10-28T00:15:45.891Z,0
2022-10-28T00:17:02.179Z,0
2022-10-28T00:18:18.479Z,0
2022-10-28T00:19:34.774Z,0
2022-10-28T00:20:51.076Z,0
2022-10-28T00:22:07.350Z,0
2022-10-28T00:23:23.662Z,0
2022-10-28T00:24:39.931Z,0
2022-10-28T00:25:56.253Z,0
2022-10-28T00:27:12.546Z,0
2022-10-28T00:28:28.821Z,0
2022-10-28T00:29:44.134Z,0
2022-10-28T00:31:00.437Z,0
2022-10-28T00:32:16.715Z,0
2022-10-28T00:33:33.031Z,0
2022-10-28T00:34:49.305Z,0
2022-10-28T00:36:05.594Z,0
2022-10-28T00:37:21.897Z,0
2022-10-28T00:38:38.176Z,0
2022-10-28T00:39:54.474Z,0
2022-10-28T00:41:10.763Z,0
2022-10-28T00:42:27.072Z,0
2022-10-28T00:43:43.376Z,0
2022-10-28T00:44:59.665Z,0
2022-10-28T00:46:14.954Z,0
2022-10-28T00:47:31.000Z,0
2022-10-28T00:48:47.566Z,0
2022-10-28T00:50:03.863Z,0
2022-10-28T00:51:20.132Z,0
2022-10-28T00:52:36.434Z,0
2022-10-28T00:53:52.743Z,0
2022-10-28T00:55:09.026Z,0
2022-10-28T00:56:25.319Z,0
2022-10-28T00:57:41.631Z,0
2022-10-28T00:58:57.919Z,0
2022-10-28T01:00:14.190Z,0
2022-10-28T01:01:30.509Z,0
2022-10-28T01:02:45.804Z,0
2022-10-28T01:04:02.091Z,0
2022-10-28T01:05:18.416Z,0
2022-10-28T01:06:34.691Z,0
2022-10-28T01:07:50.980Z,0
2022-10-28T01:09:07.265Z,0
2022-10-28T01:10:23.571Z,0
2022-10-28T01:11:39.851Z,0
2022-10-28T01:12:56.155Z,0
2022-10-28T01:14:12.466Z,0
2022-10-28T01:15:28.751Z,0
2022-10-28T01:16:45.036Z,0
2022-10-28T01:18:01.340Z,0
2022-10-28T01:19:16.646Z,0
2022-10-28T01:20:32.929Z,0
2022-10-28T01:21:49.250Z,0
2022-10-28T01:23:05.529Z,0
2022-10-28T01:24:21.835Z,0
2022-10-28T01:25:38.115Z,0
2022-10-28T01:26:54.423Z,0
2022-10-28T01:28:10.707Z,0
2022-10-28T01:29:27.016Z,0
2022-10-28T01:30:43.292Z,0
2022-10-28T01:31:59.586Z,0
2022-10-28T01:34:32.187Z,0
2022-10-28T01:35:47.489Z,0
2022-10-28T01:37:03.789Z,0
2022-10-28T01:38:20.070Z,0
2022-10-28T01:39:36.359Z,0
2022-10-28T01:40:52.663Z,0
2022-10-28T01:42:08.982Z,0
2022-10-28T01:43:25.246Z,0
2022-10-28T01:44:41.529Z,0
2022-10-28T01:45:57.827Z,0
2022-10-28T01:47:14.142Z,0
2022-10-28T01:48:30.417Z,0
2022-10-28T01:49:46.706Z,0
2022-10-28T01:51:03.003Z,0
2022-10-28T01:52:18.343Z,0
2022-10-28T01:53:34.603Z,0
2022-10-28T01:54:50.899Z,0
2022-10-28T01:56:07.206Z,0
2022-10-28T01:57:23.489Z,0
2022-10-28T01:58:39.780Z,0
2022-10-28T01:59:56.100Z,0
2022-10-28T02:01:12.371Z,0
2022-10-28T02:02:28.689Z,0
2022-10-28T02:03:44.972Z,0
2022-10-28T02:05:01.269Z,0
2022-10-28T02:06:17.549Z,0
2022-10-28T02:07:33.837Z,0
2022-10-28T02:08:49.166Z,0
2022-10-28T02:10:05.441Z,0
2022-10-28T02:11:21.752Z,0
2022-10-28T02:12:38.033Z,0
2022-10-28T02:13:54.347Z,0
2022-10-28T02:15:10.617Z,0
2022-10-28T02:16:26.921Z,0
2022-10-28T02:17:43.221Z,0
2022-10-28T02:18:59.508Z,0
2022-10-28T02:20:15.832Z,0
2022-10-28T02:21:32.112Z,0
2022-10-28T02:22:48.399Z,0
2022-10-28T02:24:04.677Z,0
2022-10-28T02:25:20.014Z,0
2022-10-28T02:26:36.293Z,0
2022-10-28T02:27:52.603Z,0
2022-10-28T02:29:08.904Z,0
2022-10-28T02:30:25.188Z,0
2022-10-28T02:31:41.469Z,0
2022-10-28T02:32:57.780Z,0
2022-10-28T02:34:14.061Z,0
2022-10-28T02:35:30.350Z,0
2022-10-28T02:36:46.660Z,0
2022-10-28T02:38:02.956Z,0
2022-10-28T02:39:19.231Z,0
2022-10-28T02:40:35.542Z,0
2022-10-28T02:41:50.835Z,0
2022-10-28T02:43:07.124Z,0
2022-10-28T02:44:23.447Z,0
2022-10-28T02:45:39.710Z,0
2022-10-28T02:46:56.003Z,0
2022-10-28T02:48:12.298Z,0
2022-10-28T02:49:28.602Z,0
2022-10-28T02:50:44.916Z,0
2022-10-28T02:52:01.201Z,0
2022-10-28T02:53:17.497Z,0
2022-10-28T02:54:33.780Z,0
2022-10-28T02:55:50.060Z,0
2022-10-28T02:57:06.352Z,0
2022-10-28T02:58:21.667Z,0
2022-10-28T02:59:37.987Z,0
2022-10-28T03:00:54.254Z,0
2022-10-28T03:02:10.542Z,0
2022-10-28T03:03:26.851Z,0
2022-10-28T03:04:43.137Z,0
2022-10-28T03:05:59.455Z,0
2022-10-28T03:07:15.745Z,0
2022-10-28T03:08:32.047Z,0
2022-10-28T03:09:48.313Z,0
2022-10-28T03:11:04.635Z,0
2022-10-28T03:13:37.217Z,0
2022-10-28T03:14:52.519Z,0
2022-10-28T03:16:08.828Z,0
2022-10-28T03:17:25.098Z,0
2022-10-28T03:18:41.393Z,0
2022-10-28T03:19:57.684Z,0
2022-10-28T03:21:13.997Z,0
2022-10-28T03:22:30.292Z,0
2022-10-28T03:23:46.574Z,0
2022-10-28T03:25:02.873Z,0
2022-10-28T03:26:19.148Z,0
2022-10-28T03:27:35.443Z,0
2022-10-28T03:28:51.738Z,0
2022-10-28T03:30:08.032Z,0
2022-10-28T03:31:23.378Z,0
2022-10-28T03:32:39.635Z,0
2022-10-28T03:33:55.944Z,0
2022-10-28T03:35:12.236Z,0
2022-10-28T03:36:28.545Z,0
2022-10-28T03:37:44.813Z,0
2022-10-28T03:39:01.129Z,0
2022-10-28T03:40:17.404Z,0
2022-10-28T03:41:33.725Z,0
2022-10-28T03:42:49.992Z,0
2022-10-28T03:44:06.305Z,0
2022-10-28T03:45:22.583Z,0
2022-10-28T03:46:38.874Z,0
2022-10-28T03:47:54.187Z,0
2022-10-28T03:49:10.496Z,0
2022-10-28T03:50:26.769Z,0
2022-10-28T03:51:43.061Z,0
2022-10-28T03:52:59.380Z,0
2022-10-28T03:54:15.673Z,0
2022-10-28T03:55:30.975Z,0
2022-10-28T03:56:47.288Z,0
2022-10-28T03:58:03.555Z,0
2022-10-28T03:59:19.847Z,0
2022-10-28T04:00:36.166Z,0
2022-10-28T04:01:52.470Z,0
2022-10-28T04:03:08.752Z,0
2022-10-28T04:04:25.043Z,0
2022-10-28T04:05:41.332Z,0
2022-10-28T04:06:57.637Z,0
2022-10-28T04:08:13.912Z,0
2022-10-28T04:09:30.198Z,0
2022-10-28T04:10:46.503Z,0
2022-10-28T04:12:01.804Z,0
2022-10-28T04:13:18.100Z,0
2022-10-28T04:14:34.417Z,0
2022-10-28T04:15:50.685Z,0
2022-10-28T04:17:06.984Z,0
2022-10-28T04:18:23.275Z,0
2022-10-28T04:19:39.591Z,0
2022-10-28T04:20:55.867Z,0
2022-10-28T04:22:12.182Z,0
2022-10-28T04:23:28.477Z,0
2022-10-28T04:24:44.764Z,0
2022-10-28T04:26:01.041Z,0
2022-10-28T04:27:17.351Z,0
2022-10-28T04:28:32.657Z,0
2022-10-28T04:29:48.962Z,0
2022-10-28T04:31:05.257Z,0
2022-10-28T04:32:21.558Z,0
2022-10-28T04:33:37.856Z,0
2022-10-28T04:34:54.132Z,0
2022-10-28T04:36:10.420Z,0
2022-10-28T04:37:26.738Z,0
2022-10-28T04:38:42.996Z,0
2022-10-28T04:39:59.288Z,0
2022-10-28T04:41:15.580Z,0
2022-10-28T04:42:31.904Z,0
2022-10-28T04:43:48.177Z,0
2022-10-28T04:45:03.479Z,0
2022-10-28T04:46:19.800Z,0
2022-10-28T04:47:36.087Z,0
2022-10-28T04:48:52.385Z,0
2022-10-28T04:50:08.662Z,0
2022-10-28T04:51:24.976Z,0
2022-10-28T04:52:41.276Z,0
2022-10-28T04:53:57.562Z,0
2022-10-28T04:55:13.834Z,0
2022-10-28T04:56:30.160Z,0
2022-10-28T04:57:46.440Z,0
2022-10-28T04:59:02.726Z,0
2022-10-28T05:00:19.012Z,0
2022-10-28T05:01:34.352Z,0
2022-10-28T05:02:50.610Z,0
2022-10-28T05:04:06.940Z,0
2022-10-28T05:05:23.223Z,0
2022-10-28T05:06:39.501Z,0
2022-10-28T05:07:55.800Z,0
2022-10-28T05:09:12.093Z,0
2022-10-28T05:10:28.398Z,0
2022-10-28T05:11:44.672Z,0
2022-10-28T05:13:00.974Z,0
2022-10-28T05:14:17.259Z,0
2022-10-28T05:15:33.569Z,0
2022-10-28T05:16:49.868Z,0
2022-10-28T05:18:05.188Z,0
2022-10-28T05:19:21.453Z,0
2022-10-28T05:20:37.711Z,1
2022-10-28T05:21:53.993Z,0
2022-10-28T05:23:10.308Z,0
2022-10-28T05:24:26.545Z,1
2022-10-28T05:25:42.793Z,1
2022-10-28T05:26:59.063Z,0
2022-10-28T05:28:15.337Z,2
2022-10-28T05:29:31.592Z,2
2022-10-28T05:30:47.817Z,1
2022-10-28T05:32:04.072Z,1
2022-10-28T05:33:20.283Z,4
2022-10-28T05:34:35.561Z,4
2022-10-28T05:35:51.778Z,8
2022-10-28T05:37:08.034Z,8
2022-10-28T05:38:24.257Z,9
2022-10-28T05:39:40.504Z,11
2022-10-28T05:40:56.752Z,11
2022-10-28T05:42:12.988Z,18
2022-10-28T05:43:29.245Z,22
2022-10-28T05:44:45.487Z,29
2022-10-28T05:46:01.698Z,33
2022-10-28T05:47:17.960Z,38
2022-10-28T05:48:34.205Z,43
2022-10-28T05:49:50.414Z,52
2022-10-28T05:51:05.690Z,62
2022-10-28T05:52:21.908Z,68
2022-10-28T05:53:38.187Z,73
2022-10-28T05:54:54.389Z,76
2022-10-28T05:56:10.649Z,85
2022-10-28T05:57:26.868Z,94
2022-10-28T05:58:43.111Z,98
2022-10-28T05:59:59.373Z,113
2022-10-28T06:01:15.610Z,131
2022-10-28T06:02:31.856Z,145
2022-10-28T06:03:48.072Z,154
2022-10-28T06:05:04.000Z,168
2022-10-28T06:06:20.548Z,177
2022-10-28T06:07:35.804Z,187
2022-10-28T06:08:52.054Z,196
2022-10-28T06:10:08.289Z,206
2022-10-28T06:11:24.532Z,223
2022-10-28T06:12:40.764Z,240
2022-10-28T06:13:57.005Z,263
2022-10-28T06:15:13.243Z,289
2022-10-28T06:16:29.520Z,304
2022-10-28T06:17:45.731Z,323
2022-10-28T06:19:01.997Z,340
2022-10-28T06:20:18.204Z,365
2022-10-28T06:21:34.459Z,382
2022-10-28T06:22:50.000Z,416
2022-10-28T06:24:05.971Z,433
2022-10-28T06:25:22.208Z,456
2022-10-28T06:26:38.434Z,484
2022-10-28T06:27:54.694Z,513
2022-10-28T06:29:10.913Z,559
2022-10-28T06:30:27.146Z,592
2022-10-28T06:31:43.384Z,634
2022-10-28T06:32:59.649Z,672
2022-10-28T06:34:15.893Z,736
2022-10-28T06:35:32.112Z,808
2022-10-28T06:36:48.363Z,853
2022-10-28T06:38:04.584Z,885
2022-10-28T06:39:20.829Z,905
2022-10-28T06:40:36.108Z,938
2022-10-28T06:41:52.320Z,981
2022-10-28T06:43:08.562Z,1035
2022-10-28T06:44:24.799Z,1074
2022-10-28T06:45:41.040Z,1116
2022-10-28T06:46:57.302Z,1141
2022-10-28T06:48:13.547Z,1168
2022-10-28T06:49:29.771Z,1195
2022-10-28T06:50:46.004Z,1209
2022-10-28T06:52:02.242Z,1223
2022-10-28T06:53:18.479Z,1231
2022-10-28T06:54:34.741Z,1298
2022-10-28T06:55:50.990Z,1379
2022-10-28T06:57:06.239Z,1477
2022-10-28T06:58:22.469Z,1511
2022-10-28T06:59:38.722Z,1531
2022-10-28T07:00:54.947Z,1544
2022-10-28T07:02:11.199Z,1652
2022-10-28T07:03:27.423Z,1886
2022-10-28T07:04:43.685Z,1976
2022-10-28T07:05:59.905Z,1893
2022-10-28T07:07:16.173Z,1806
2022-10-28T07:08:32.371Z,1798
2022-10-28T07:09:48.644Z,1854
2022-10-28T07:11:04.877Z,1929
2022-10-28T07:12:21.096Z,2083
2022-10-28T07:13:36.352Z,2229
2022-10-28T07:14:52.618Z,2350
2022-10-28T07:16:08.844Z,2611
2022-10-28T07:17:25.079Z,2523
2022-10-28T07:18:41.315Z,2308
2022-10-28T07:19:57.572Z,2192
2022-10-28T07:21:13.794Z,2138
2022-10-28T07:22:30.059Z,2377
2022-10-28T07:23:46.285Z,2747
2022-10-28T07:25:02.511Z,2905
2022-10-28T07:26:18.762Z,3043
2022-10-28T07:27:34.997Z,3237
2022-10-28T07:28:51.242Z,3221
2022-10-28T07:30:06.518Z,3284
2022-10-28T07:31:22.742Z,3525
2022-10-28T07:32:38.968Z,3524
2022-10-28T07:33:55.208Z,3529
2022-10-28T07:35:11.447Z,3528
2022-10-28T07:36:27.695Z,3714
2022-10-28T07:37:43.969Z,4004
2022-10-28T07:39:00.171Z,4371
2022-10-28T07:40:16.440Z,4509
2022-10-28T07:41:32.683Z,4936
2022-10-28T07:42:48.904Z,5399
2022-10-28T07:44:05.134Z,5895
2022-10-28T07:45:21.374Z,6529
2022-10-28T07:46:36.635Z,4828
2022-10-28T07:47:52.869Z,4617
2022-10-28T07:49:09.131Z,2485
2022-10-28T07:50:25.374Z,5575
2022-10-28T07:51:41.612Z,14728
2022-10-28T07:52:57.856Z,15565
2022-10-28T07:54:14.086Z,5325
2022-10-28T07:55:30.317Z,3340
2022-10-28T07:56:46.546Z,4168
2022-10-28T07:58:02.801Z,15303
2022-10-28T07:59:19.024Z,28389
2022-10-28T08:00:35.265Z,25333
2022-10-28T08:01:51.507Z,32582
2022-10-28T08:03:06.794Z,30025
2022-10-28T08:04:23.024Z,14743
2022-10-28T08:05:39.272Z,16828
2022-10-28T08:06:55.494Z,5595
2022-10-28T08:08:11.726Z,5171
2022-10-28T08:09:27.964Z,4431
2022-10-28T08:10:43.249Z,2385
2022-10-28T08:11:59.496Z,5125
2022-10-28T08:13:15.701Z,12157
2022-10-28T08:14:31.960Z,7429
2022-10-28T08:15:48.185Z,4874
2022-10-28T08:18:20.667Z,4079
2022-10-28T08:19:36.912Z,2490
2022-10-28T08:20:53.149Z,16974
2022-10-28T08:23:25.664Z,77811
2022-10-28T08:24:41.862Z,70269
2022-10-28T08:25:58.132Z,13455
2022-10-28T08:27:13.399Z,76512
2022-10-28T08:28:29.633Z,76259
2022-10-28T08:29:45.858Z,76921
2022-10-28T08:31:02.102Z,77134
2022-10-28T08:32:18.334Z,74959
2022-10-28T08:33:34.591Z,77817
2022-10-28T08:34:50.798Z,69271
2022-10-28T08:36:07.068Z,11426
2022-10-28T08:37:23.290Z,75185
2022-10-28T08:38:39.546Z,77057
2022-10-28T08:39:55.778Z,77381
2022-10-28T08:41:12.037Z,64496
2022-10-28T08:42:28.246Z,16857
2022-10-28T08:43:43.535Z,5623
2022-10-28T08:44:59.752Z,64757
2022-10-28T08:46:16.013Z,17482
2022-10-28T08:47:32.222Z,7467
2022-10-28T08:48:48.471Z,10757
2022-10-28T08:50:04.700Z,5595
2022-10-28T08:51:20.964Z,4086
2022-10-28T08:52:37.197Z,78545
2022-10-28T08:53:53.455Z,79987
2022-10-28T08:55:09.674Z,75485
2022-10-28T08:56:25.940Z,77010
2022-10-28T08:57:42.181Z,60508
2022-10-28T08:58:58.408Z,4824
2022-10-28T09:00:13.662Z,77321
2022-10-28T09:01:29.894Z,61158
2022-10-28T09:02:46.142Z,4552
2022-10-28T09:04:02.393Z,31231
2022-10-28T09:05:18.610Z,7113
2022-10-28T09:06:34.857Z,76675
2022-10-28T09:07:51.101Z,69290
2022-10-28T09:09:07.363Z,24386
2022-10-28T09:10:23.572Z,6730
2022-10-28T09:11:39.836Z,3772
2022-10-28T09:12:56.060Z,3201
2022-10-28T09:14:12.313Z,3404
2022-10-28T09:16:44.794Z,2177
2022-10-28T09:18:00.025Z,4646
2022-10-28T09:19:16.301Z,27567
2022-10-28T09:20:32.514Z,37145
2022-10-28T09:21:48.772Z,14887
2022-10-28T09:23:04.983Z,15505
2022-10-28T09:24:21.261Z,30740
2022-10-28T09:25:37.479Z,27715
2022-10-28T09:26:53.711Z,38831
2022-10-28T09:28:09.958Z,29203
2022-10-28T09:29:26.195Z,18375
2022-10-28T09:30:42.427Z,8718
2022-10-28T09:31:58.710Z,4402
2022-10-28T09:33:14.919Z,20589
2022-10-28T09:34:30.185Z,30583
2022-10-28T09:35:46.417Z,16141
2022-10-28T09:37:02.657Z,3774
2022-10-28T09:38:18.894Z,25792
2022-10-28T09:39:35.124Z,6321
2022-10-28T09:40:51.364Z,20993
2022-10-28T09:42:07.642Z,29805
2022-10-28T09:43:23.851Z,17141
2022-10-28T09:44:40.111Z,73263
2022-10-28T09:45:56.336Z,29490
2022-10-28T09:47:12.593Z,26402
2022-10-28T09:48:28.807Z,82896
2022-10-28T09:49:45.047Z,83404
2022-10-28T09:51:00.338Z,78367
2022-10-28T09:52:16.581Z,81211
2022-10-28T09:53:32.786Z,80191
2022-10-28T09:54:49.025Z,82379
2022-10-28T09:56:05.278Z,77834
2022-10-28T09:57:21.500Z,81896
2022-10-28T09:58:37.741Z,80065
2022-10-28T09:59:54.000Z,81319
2022-10-28T10:01:10.231Z,83171
2022-10-28T10:02:26.491Z,76629
2022-10-28T10:03:42.702Z,76601
2022-10-28T10:04:58.944Z,76423
2022-10-28T10:06:15.195Z,62436
2022-10-28T10:07:30.468Z,5384
2022-10-28T10:08:46.699Z,31942
2022-10-28T10:10:02.932Z,19913
2022-10-28T10:12:35.407Z,8325
2022-10-28T10:13:51.685Z,3738
2022-10-28T10:15:07.893Z,11358
2022-10-28T10:17:40.364Z,2453
2022-10-28T10:18:56.618Z,4563
2022-10-28T10:20:12.873Z,20324
2022-10-28T10:21:29.100Z,3830
2022-10-28T10:22:45.330Z,13223
2022-10-28T10:24:00.582Z,6370
2022-10-28T10:25:16.831Z,5603
2022-10-28T10:26:33.076Z,4822
2022-10-28T10:27:49.303Z,4317
2022-10-28T10:29:05.555Z,3560
2022-10-28T10:30:21.796Z,4266
2022-10-28T10:31:38.042Z,4369
2022-10-28T10:32:54.278Z,2233
2022-10-28T10:34:10.503Z,11535
2022-10-28T10:35:26.784Z,6563
2022-10-28T10:36:42.991Z,5669
2022-10-28T10:37:59.233Z,5688
2022-10-28T10:39:15.478Z,3379
2022-10-28T10:40:30.751Z,21495
2022-10-28T10:41:46.972Z,18992
2022-10-28T10:43:03.203Z,17287
2022-10-28T10:44:19.472Z,6413
2022-10-28T10:45:35.706Z,8587
2022-10-28T10:46:51.922Z,2744
2022-10-28T10:48:08.166Z,16787
2022-10-28T10:49:24.414Z,26602
2022-10-28T10:50:40.669Z,4198
2022-10-28T10:51:56.906Z,7264
2022-10-28T10:53:13.156Z,80326
2022-10-28T10:54:29.370Z,78521
2022-10-28T10:55:45.629Z,81756
2022-10-28T10:57:00.871Z,80600
2022-10-28T10:58:17.100Z,79488
2022-10-28T10:59:33.337Z,73671
2022-10-28T11:00:49.594Z,64659
2022-10-28T11:02:05.834Z,14581
2022-10-28T11:03:22.065Z,20951
2022-10-28T11:04:38.311Z,10869
2022-10-28T11:05:54.547Z,6989
2022-10-28T11:07:10.791Z,7181
2022-10-28T11:08:27.020Z,7091
2022-10-28T11:09:43.261Z,12537
2022-10-28T11:10:59.504Z,9741
2022-10-28T11:12:15.747Z,11276
2022-10-28T11:13:30.996Z,15800
2022-10-28T11:14:47.251Z,11667
2022-10-28T11:16:03.476Z,13063
2022-10-28T11:17:19.731Z,4862
2022-10-28T11:18:35.958Z,11440
2022-10-28T11:19:52.208Z,26866
2022-10-28T11:21:08.447Z,73847
2022-10-28T11:22:24.679Z,31944
2022-10-28T11:23:40.919Z,27959
2022-10-28T11:24:57.159Z,38358
2022-10-28T11:26:13.404Z,8017
2022-10-28T11:27:29.640Z,76051
2022-10-28T11:28:45.880Z,77647
2022-10-28T11:30:01.151Z,70322
2022-10-28T11:31:17.383Z,33780
2022-10-28T11:32:33.616Z,24714
2022-10-28T11:33:49.860Z,31521
2022-10-28T11:35:06.115Z,21211
2022-10-28T11:36:22.357Z,35680
2022-10-28T11:37:38.595Z,31741
2022-10-28T11:38:54.821Z,33978
2022-10-28T11:40:11.072Z,37600
2022-10-28T11:41:27.298Z,28105
2022-10-28T11:42:43.557Z,21663
2022-10-28T11:43:59.795Z,5003
2022-10-28T11:45:16.025Z,27773
2022-10-28T11:46:31.285Z,27482
2022-10-28T11:47:47.535Z,11201
2022-10-28T11:49:03.761Z,8555
2022-10-28T11:50:20.000Z,6670
2022-10-28T11:51:36.248Z,5915
2022-10-28T11:52:52.489Z,8673
2022-10-28T11:54:08.722Z,7104
2022-10-28T11:55:24.971Z,5457
2022-10-28T11:56:41.202Z,4912
2022-10-28T11:57:57.452Z,6816
2022-10-28T11:59:13.685Z,2857
2022-10-28T12:00:29.928Z,8157
2022-10-28T12:01:46.169Z,4503
2022-10-28T12:03:01.414Z,29109
2022-10-28T12:04:17.658Z,7314
2022-10-28T12:05:33.915Z,10080
2022-10-28T12:06:50.141Z,9341
2022-10-28T12:08:06.378Z,10566
2022-10-28T12:09:22.625Z,7764
2022-10-28T12:10:38.866Z,6750
2022-10-28T12:11:55.100Z,8671
2022-10-28T12:13:11.337Z,7738
2022-10-28T12:14:27.585Z,2891
2022-10-28T12:15:43.838Z,6013
2022-10-28T12:17:00.056Z,61745
2022-10-28T12:18:16.307Z,11304
2022-10-28T12:19:31.558Z,12701
2022-10-28T12:20:47.810Z,5037
2022-10-28T12:22:04.037Z,23120
2022-10-28T12:23:20.285Z,17960
2022-10-28T12:24:36.526Z,75763
2022-10-28T12:25:51.785Z,62738
2022-10-28T12:27:08.027Z,5848
2022-10-28T12:28:24.271Z,66330
2022-10-28T12:29:40.502Z,11320
2022-10-28T12:30:56.747Z,31784
2022-10-28T12:32:12.981Z,25356
2022-10-28T12:33:29.225Z,73637
2022-10-28T12:34:45.458Z,32761
2022-10-28T12:36:01.714Z,11265
2022-10-28T12:37:17.942Z,4993
2022-10-28T12:38:34.186Z,3952
2022-10-28T12:39:50.436Z,7806
2022-10-28T12:41:06.669Z,22704
2022-10-28T12:42:21.917Z,62635
2022-10-28T12:43:38.162Z,5177
2022-10-28T12:44:54.404Z,31921
2022-10-28T12:46:10.644Z,15873
2022-10-28T12:47:26.891Z,5719
2022-10-28T12:48:43.132Z,37089
2022-10-28T12:49:59.368Z,37087
2022-10-28T12:51:15.615Z,27695
2022-10-28T12:52:31.859Z,18479
2022-10-28T12:53:48.081Z,16807
2022-10-28T12:55:04.323Z,10842
2022-10-28T12:56:20.573Z,5714
2022-10-28T12:57:36.807Z,4181
2022-10-28T12:58:52.070Z,3606
2022-10-28T13:00:08.306Z,3153
2022-10-28T13:01:24.554Z,2785
2022-10-28T13:02:40.786Z,2470
2022-10-28T13:03:57.021Z,2259
2022-10-28T13:05:13.270Z,2050
2022-10-28T13:06:29.518Z,1858
2022-10-28T13:07:45.739Z,1728
2022-10-28T13:09:01.992Z,1650
2022-10-28T13:10:18.238Z,1608
2022-10-28T13:11:34.479Z,1589
2022-10-28T13:12:50.704Z,1516
2022-10-28T13:14:06.954Z,1463
2022-10-28T13:15:22.198Z,1391
2022-10-28T13:16:38.448Z,1335
2022-10-28T13:17:54.678Z,1292
2022-10-28T13:19:10.932Z,1238
2022-10-28T13:20:27.165Z,1209
2022-10-28T13:21:43.398Z,1175
2022-10-28T13:22:59.638Z,1163
2022-10-28T13:24:15.878Z,1160
2022-10-28T13:25:32.129Z,1127
2022-10-28T13:26:48.373Z,1105
2022-10-28T13:28:04.613Z,1078
2022-10-28T13:29:20.851Z,1042
2022-10-28T13:30:37.093Z,1029
2022-10-28T13:31:52.345Z,1007
2022-10-28T13:33:08.577Z,985
2022-10-28T13:34:24.823Z,961
2022-10-28T13:35:41.065Z,920
2022-10-28T13:36:57.294Z,880
2022-10-28T13:38:13.541Z,856
2022-10-28T13:40:46.017Z,788
2022-10-28T13:42:02.261Z,779
2022-10-28T13:43:18.500Z,767
2022-10-28T13:44:34.749Z,760
2022-10-28T13:45:50.990Z,755
2022-10-28T13:47:07.217Z,750
2022-10-28T13:48:22.481Z,741
2022-10-28T13:49:38.724Z,751
2022-10-28T13:50:54.958Z,735
2022-10-28T13:52:11.197Z,742
2022-10-28T13:53:27.429Z,745
2022-10-28T13:54:43.684Z,765
2022-10-28T13:55:59.923Z,624
2022-10-28T13:57:16.164Z,445
2022-10-28T13:58:32.392Z,2944
2022-10-28T13:59:48.636Z,1638
2022-10-28T14:01:04.873Z,1963
2022-10-28T14:02:21.114Z,2025
2022-10-28T14:03:37.349Z,1789
2022-10-28T14:04:52.620Z,1586
2022-10-28T14:06:08.855Z,1179
2022-10-28T14:07:25.094Z,1000
2022-10-28T14:08:41.324Z,1021
2022-10-28T14:09:57.566Z,1040
2022-10-28T14:11:13.819Z,1083
2022-10-28T14:12:30.049Z,1150
2022-10-28T14:13:46.310Z,1165
2022-10-28T14:15:02.540Z,1198
2022-10-28T14:16:18.775Z,1190
2022-10-28T14:17:35.015Z,1178
2022-10-28T14:18:51.258Z,1191
2022-10-28T14:20:07.490Z,1119
2022-10-28T14:21:22.759Z,1079
2022-10-28T14:22:38.999Z,1030
2022-10-28T14:23:55.225Z,974
2022-10-28T14:25:11.481Z,933
2022-10-28T14:26:27.719Z,880
2022-10-28T14:27:43.952Z,847
2022-10-28T14:29:00.190Z,799
2022-10-28T14:30:16.428Z,753
2022-10-28T14:31:32.671Z,720
2022-10-28T14:32:48.919Z,697
2022-10-28T14:34:05.169Z,661
2022-10-28T14:35:21.389Z,627
2022-10-28T14:36:37.622Z,598
2022-10-28T14:37:52.890Z,602
2022-10-28T14:39:09.138Z,611
2022-10-28T14:40:25.374Z,610
2022-10-28T14:41:41.609Z,597
2022-10-28T14:42:57.855Z,576
2022-10-28T14:44:14.099Z,564
2022-10-28T14:45:30.339Z,547
2022-10-28T14:46:46.569Z,535
2022-10-28T14:48:02.801Z,531
2022-10-28T14:49:19.059Z,529
2022-10-28T14:50:35.297Z,533
2022-10-28T14:51:51.541Z,522
2022-10-28T14:53:07.763Z,500
2022-10-28T14:54:23.023Z,478
2022-10-28T14:55:39.271Z,473
2022-10-28T14:56:55.516Z,466
2022-10-28T14:58:11.740Z,440
2022-10-28T14:59:27.993Z,423
2022-10-28T15:00:44.234Z,411
2022-10-28T15:02:00.465Z,405
2022-10-28T15:03:16.707Z,404
2022-10-28T15:04:32.957Z,400
2022-10-28T15:05:49.196Z,404
2022-10-28T15:07:05.435Z,399
2022-10-28T15:08:21.673Z,391
2022-10-28T15:09:37.909Z,389
2022-10-28T15:10:53.165Z,388
2022-10-28T15:12:09.396Z,391
2022-10-28T15:13:25.644Z,391
2022-10-28T15:14:41.893Z,397
2022-10-28T15:15:58.122Z,389
2022-10-28T15:17:14.359Z,378
2022-10-28T15:18:30.601Z,362
2022-10-28T15:19:46.851Z,345
2022-10-28T15:21:03.077Z,322
2022-10-28T15:22:19.317Z,306
2022-10-28T15:23:35.566Z,283
2022-10-28T15:24:51.823Z,266
2022-10-28T15:26:08.037Z,255
2022-10-28T15:27:23.293Z,243
2022-10-28T15:28:39.535Z,228
2022-10-28T15:29:55.786Z,211
2022-10-28T15:31:12.030Z,202
2022-10-28T15:32:28.256Z,189
2022-10-28T15:33:44.509Z,181
2022-10-28T15:35:00.739Z,175
2022-10-28T15:36:16.000Z,166
2022-10-28T15:37:33.215Z,160
2022-10-28T15:38:49.453Z,151
2022-10-28T15:40:05.697Z,146
2022-10-28T15:41:21.961Z,132
2022-10-28T15:42:38.198Z,124
2022-10-28T15:43:53.438Z,113
2022-10-28T15:45:09.695Z,107
2022-10-28T15:46:25.930Z,93
2022-10-28T15:47:42.162Z,80
2022-10-28T15:48:58.407Z,70
2022-10-28T15:50:14.650Z,63
2022-10-28T15:51:30.889Z,52
2022-10-28T15:52:47.112Z,48
2022-10-28T15:54:03.367Z,42
2022-10-28T15:55:19.604Z,38
2022-10-28T15:56:35.847Z,33
2022-10-28T15:57:52.072Z,28
2022-10-28T15:59:08.325Z,25
2022-10-28T16:00:23.580Z,20
2022-10-28T16:01:39.826Z,19
2022-10-28T16:02:56.062Z,14
2022-10-28T16:04:12.309Z,12
2022-10-28T16:05:28.542Z,11
2022-10-28T16:06:44.000Z,8
2022-10-28T16:08:01.012Z,7
2022-10-28T16:09:17.265Z,6
2022-10-28T16:10:33.508Z,5
2022-10-28T16:11:49.741Z,2
2022-10-28T16:13:05.970Z,2
2022-10-28T16:14:22.225Z,1
2022-10-28T16:15:38.461Z,1
2022-10-28T16:16:53.722Z,1
2022-10-28T16:18:10.010Z,0
2022-10-28T16:19:26.298Z,0
2022-10-28T16:20:42.599Z,0
2022-10-28T16:21:58.898Z,0
2022-10-28T16:23:15.186Z,0
2022-10-28T16:24:31.474Z,0
2022-10-28T16:25:47.772Z,0
2022-10-28T16:27:04.067Z,0
2022-10-28T16:28:20.364Z,0
2022-10-28T16:29:36.654Z,0
2022-10-28T16:30:52.945Z,0
2022-10-28T16:32:09.232Z,0
2022-10-28T16:33:24.555Z,0
2022-10-28T16:34:40.841Z,0
2022-10-28T16:35:57.145Z,0
2022-10-28T16:37:13.432Z,0
2022-10-28T16:38:29.731Z,0
2022-10-28T16:39:46.020Z,0
2022-10-28T16:41:01.327Z,0
2022-10-28T16:42:17.638Z,0
2022-10-28T16:43:33.931Z,0
2022-10-28T16:44:50.211Z,0
2022-10-28T16:46:06.514Z,0
2022-10-28T16:47:22.796Z,0
2022-10-28T16:48:39.109Z,0
2022-10-28T16:49:55.400Z,0
2022-10-28T16:51:11.691Z,0
2022-10-28T16:52:27.992Z,0
2022-10-28T16:53:44.283Z,0
2022-10-28T16:55:00.565Z,0
2022-10-28T16:56:16.884Z,0
2022-10-28T16:57:32.175Z,0
2022-10-28T16:58:48.464Z,0
2022-10-28T17:00:04.762Z,0
2022-10-28T17:01:21.066Z,0
2022-10-28T17:02:37.355Z,0
2022-10-28T17:03:53.637Z,0
2022-10-28T17:05:09.950Z,0
2022-10-28T17:06:26.236Z,0
2022-10-28T17:07:42.529Z,0
2022-10-28T17:08:58.819Z,0
2022-10-28T17:10:15.112Z,0
2022-10-28T17:11:31.411Z,0
2022-10-28T17:12:47.702Z,0
2022-10-28T17:14:03.011Z,0
2022-10-28T17:15:19.315Z,0
2022-10-28T17:16:35.601Z,0
2022-10-28T17:17:51.883Z,0
2022-10-28T17:19:08.201Z,0
2022-10-28T17:20:24.485Z,0
2022-10-28T17:21:40.770Z,0
2022-10-28T17:22:57.063Z,0
2022-10-28T17:24:13.372Z,0
2022-10-28T17:25:29.666Z,0
2022-10-28T17:26:45.948Z,0
2022-10-28T17:28:02.250Z,0
2022-10-28T17:29:18.540Z,0
2022-10-28T17:30:33.846Z,0
2022-10-28T17:31:50.149Z,0
2022-10-28T17:33:06.430Z,0
2022-10-28T17:34:22.724Z,0
2022-10-28T17:35:39.037Z,0
2022-10-28T17:36:55.310Z,0
2022-10-28T17:38:11.604Z,0
2022-10-28T17:39:27.900Z,0
2022-10-28T17:40:44.208Z,0
2022-10-28T17:42:00.498Z,0
2022-10-28T17:43:16.787Z,0
2022-10-28T17:44:33.072Z,0
2022-10-28T17:45:49.385Z,0
2022-10-28T17:47:04.694Z,0
2022-10-28T17:48:20.969Z,0
2022-10-28T17:49:37.279Z,0
2022-10-28T17:50:53.561Z,0